sensor_id;sensor_type;location;lat;lon;timestamp;pressure;altitude;pressure_sealevel;temperature;humidity
13033;BME280;6583;42.632;23.298;2023-04-27T00:01:15;70696.34;;;-146.40;49.89
13033;BME280;6583;42.632;23.298;2023-04-27T00:03:42;70694.34;;;-146.40;50.01
13033;BME280;6583;42.632;23.298;2023-04-27T00:06:10;70686.25;;;-146.40;50.81
13033;BME280;6583;42.632;23.298;2023-04-27T00:08:38;70700.41;;;-146.40;50.04
13033;BME280;6583;42.632;23.298;2023-04-27T00:11:05;70696.34;;;-146.40;49.52
13033;BME280;6583;42.632;23.298;2023-04-27T00:13:31;70704.44;;;-146.40;49.92
13033;BME280;6583;42.632;23.298;2023-04-27T00:15:59;70700.41;;;-146.40;49.39
13033;BME280;6583;42.632;23.298;2023-04-27T00:18:28;70702.41;;;-146.40;50.37
13033;BME280;6583;42.632;23.298;2023-04-27T00:20:54;70712.53;;;-146.40;49.86
13033;BME280;6583;42.632;23.298;2023-04-27T00:23:21;70704.44;;;-146.40;49.96
13033;BME280;6583;42.632;23.298;2023-04-27T00:25:49;70728.72;;;-146.40;49.72
13033;BME280;6583;42.632;23.298;2023-04-27T00:28:16;70720.63;;;-146.40;50.05
13033;BME280;6583;42.632;23.298;2023-04-27T00:30:42;70724.69;;;-146.40;50.00
13033;BME280;6583;42.632;23.298;2023-04-27T00:33:09;70716.59;;;-146.40;50.92
13033;BME280;6583;42.632;23.298;2023-04-27T00:35:36;70716.59;;;-146.40;49.96
13033;BME280;6583;42.632;23.298;2023-04-27T00:38:02;70724.69;;;-146.40;50.17
13033;BME280;6583;42.632;23.298;2023-04-27T00:40:30;70728.72;;;-146.40;49.88
13033;BME280;6583;42.632;23.298;2023-04-27T00:42:58;70720.63;;;-146.40;50.12
13033;BME280;6583;42.632;23.298;2023-04-27T00:45:25;70730.75;;;-146.40;50.62
13033;BME280;6583;42.632;23.298;2023-04-27T00:47:52;70748.97;;;-146.40;49.91
13033;BME280;6583;42.632;23.298;2023-04-27T00:50:23;70738.84;;;-146.40;50.48
13033;BME280;6583;42.632;23.298;2023-04-27T00:52:52;70740.88;;;-146.40;50.79
13033;BME280;6583;42.632;23.298;2023-04-27T00:55:19;70757.06;;;-146.40;51.16
13033;BME280;6583;42.632;23.298;2023-04-27T00:57:46;70757.06;;;-146.40;49.64
13033;BME280;6583;42.632;23.298;2023-04-27T01:00:14;70767.16;;;-146.40;51.65
13033;BME280;6583;42.632;23.298;2023-04-27T01:02:41;70769.19;;;-146.40;50.56
13033;BME280;6583;42.632;23.298;2023-04-27T01:05:08;70769.19;;;-146.40;50.88
13033;BME280;6583;42.632;23.298;2023-04-27T01:07:36;70765.16;;;-146.40;50.15
13033;BME280;6583;42.632;23.298;2023-04-27T01:10:03;70777.28;;;-146.40;49.61
13033;BME280;6583;42.632;23.298;2023-04-27T01:12:30;70805.63;;;-146.40;49.07
13033;BME280;6583;42.632;23.298;2023-04-27T01:14:57;70797.53;;;-146.40;49.19
13033;BME280;6583;42.632;23.298;2023-04-27T01:17:25;70789.44;;;-146.40;50.23
13033;BME280;6583;42.632;23.298;2023-04-27T01:19:52;70793.47;;;-146.40;50.13
13033;BME280;6583;42.632;23.298;2023-04-27T01:22:19;70789.44;;;-146.40;49.95
13033;BME280;6583;42.632;23.298;2023-04-27T01:24:47;70799.53;;;-146.40;49.55
13033;BME280;6583;42.632;23.298;2023-04-27T01:27:14;70795.50;;;-146.40;50.76
13033;BME280;6583;42.632;23.298;2023-04-27T01:29:41;70793.47;;;-146.40;50.12
13033;BME280;6583;42.632;23.298;2023-04-27T01:32:08;70807.63;;;-146.40;50.98
13033;BME280;6583;42.632;23.298;2023-04-27T01:34:36;70813.72;;;-146.40;49.45
13033;BME280;6583;42.632;23.298;2023-04-27T01:37:03;70833.94;;;-146.40;49.20
13033;BME280;6583;42.632;23.298;2023-04-27T01:39:30;70827.88;;;-146.40;49.87
13033;BME280;6583;42.632;23.298;2023-04-27T01:41:58;70838.00;;;-146.40;50.32
13033;BME280;6583;42.632;23.298;2023-04-27T01:44:24;70833.94;;;-146.40;50.48
13033;BME280;6583;42.632;23.298;2023-04-27T01:46:51;70838.00;;;-146.40;50.50
13033;BME280;6583;42.632;23.298;2023-04-27T01:49:18;70829.91;;;-146.40;50.16
13033;BME280;6583;42.632;23.298;2023-04-27T01:51:44;70829.91;;;-146.40;51.25
13033;BME280;6583;42.632;23.298;2023-04-27T01:54:11;70833.94;;;-146.40;50.46
13033;BME280;6583;42.632;23.298;2023-04-27T01:56:37;70827.88;;;-146.40;50.44
13033;BME280;6583;42.632;23.298;2023-04-27T01:59:06;70817.75;;;-146.40;50.61
13033;BME280;6583;42.632;23.298;2023-04-27T02:01:32;70821.81;;;-146.40;49.66
13033;BME280;6583;42.632;23.298;2023-04-27T02:03:59;70819.78;;;-146.40;49.62
13033;BME280;6583;42.632;23.298;2023-04-27T02:06:26;70817.75;;;-146.40;49.27
13033;BME280;6583;42.632;23.298;2023-04-27T02:08:53;70817.75;;;-146.40;49.57
13033;BME280;6583;42.632;23.298;2023-04-27T02:11:19;70813.72;;;-146.40;49.82
13033;BME280;6583;42.632;23.298;2023-04-27T02:13:46;70821.81;;;-146.40;49.57
13033;BME280;6583;42.632;23.298;2023-04-27T02:16:14;70825.84;;;-146.40;48.86
13033;BME280;6583;42.632;23.298;2023-04-27T02:18:41;70819.78;;;-146.40;48.32
13033;BME280;6583;42.632;23.298;2023-04-27T02:21:08;70833.94;;;-146.40;50.11
13033;BME280;6583;42.632;23.298;2023-04-27T02:23:35;70821.81;;;-146.40;50.07
13033;BME280;6583;42.632;23.298;2023-04-27T02:26:02;70821.81;;;-146.40;49.65
13033;BME280;6583;42.632;23.298;2023-04-27T02:28:28;70819.78;;;-146.40;49.50
13033;BME280;6583;42.632;23.298;2023-04-27T02:30:55;70831.91;;;-146.40;47.66
13033;BME280;6583;42.632;23.298;2023-04-27T02:33:23;70825.84;;;-146.40;48.90
13033;BME280;6583;42.632;23.298;2023-04-27T02:35:50;70827.88;;;-146.40;49.40
13033;BME280;6583;42.632;23.298;2023-04-27T02:38:16;70838.00;;;-146.40;47.99
13033;BME280;6583;42.632;23.298;2023-04-27T02:40:43;70827.88;;;-146.40;48.91
13033;BME280;6583;42.632;23.298;2023-04-27T02:43:10;70825.84;;;-146.40;48.33
13033;BME280;6583;42.632;23.298;2023-04-27T02:45:36;70825.84;;;-146.40;49.86
13033;BME280;6583;42.632;23.298;2023-04-27T02:48:03;70829.91;;;-146.40;48.98
13033;BME280;6583;42.632;23.298;2023-04-27T02:50:31;70829.91;;;-146.40;49.08
13033;BME280;6583;42.632;23.298;2023-04-27T02:52:58;70833.94;;;-146.40;48.83
13033;BME280;6583;42.632;23.298;2023-04-27T02:55:25;70838.00;;;-146.40;48.16
13033;BME280;6583;42.632;23.298;2023-04-27T02:57:51;70838.00;;;-146.40;48.72
13033;BME280;6583;42.632;23.298;2023-04-27T03:00:18;70856.19;;;-146.40;48.70
13033;BME280;6583;42.632;23.298;2023-04-27T03:02:45;70846.09;;;-146.40;48.54
13033;BME280;6583;42.632;23.298;2023-04-27T03:05:11;70854.19;;;-146.40;48.21
13033;BME280;6583;42.632;23.298;2023-04-27T03:07:39;70862.28;;;-146.40;47.41
13033;BME280;6583;42.632;23.298;2023-04-27T03:10:07;70882.50;;;-146.40;46.82
13033;BME280;6583;42.632;23.298;2023-04-27T03:12:34;70882.50;;;-146.40;49.09
13033;BME280;6583;42.632;23.298;2023-04-27T03:15:00;70872.38;;;-146.40;49.87
13033;BME280;6583;42.632;23.298;2023-04-27T03:17:27;70890.59;;;-146.40;48.81
13033;BME280;6583;42.632;23.298;2023-04-27T03:19:54;70890.59;;;-146.40;48.46
13033;BME280;6583;42.632;23.298;2023-04-27T03:22:21;70878.47;;;-146.40;48.80
13033;BME280;6583;42.632;23.298;2023-04-27T03:24:49;70886.56;;;-146.40;48.21
13033;BME280;6583;42.632;23.298;2023-04-27T03:27:15;70886.56;;;-146.40;48.57
13033;BME280;6583;42.632;23.298;2023-04-27T03:29:42;70878.47;;;-146.40;49.55
13033;BME280;6583;42.632;23.298;2023-04-27T03:32:09;70876.44;;;-146.40;49.37
13033;BME280;6583;42.632;23.298;2023-04-27T03:34:35;70876.44;;;-146.40;49.64
13033;BME280;6583;42.632;23.298;2023-04-27T03:37:02;70876.44;;;-146.40;48.81
13033;BME280;6583;42.632;23.298;2023-04-27T03:39:28;70870.38;;;-146.40;49.54
13033;BME280;6583;42.632;23.298;2023-04-27T03:41:56;70870.38;;;-146.40;49.99
13033;BME280;6583;42.632;23.298;2023-04-27T03:44:23;70874.41;;;-146.40;49.09
13033;BME280;6583;42.632;23.298;2023-04-27T03:46:50;70874.41;;;-146.40;47.67
13033;BME280;6583;42.632;23.298;2023-04-27T03:49:16;70878.47;;;-146.40;49.21
13033;BME280;6583;42.632;23.298;2023-04-27T03:51:43;70874.41;;;-146.40;49.30
13033;BME280;6583;42.632;23.298;2023-04-27T03:54:10;70884.53;;;-146.40;47.85
13033;BME280;6583;42.632;23.298;2023-04-27T03:56:36;70878.47;;;-146.40;47.87
13033;BME280;6583;42.632;23.298;2023-04-27T03:59:04;70878.47;;;-146.40;47.06
13033;BME280;6583;42.632;23.298;2023-04-27T04:01:31;70878.47;;;-146.40;48.48
13033;BME280;6583;42.632;23.298;2023-04-27T04:03:58;70884.53;;;-146.40;47.05
13033;BME280;6583;42.632;23.298;2023-04-27T04:06:25;70898.69;;;-146.40;47.32
13033;BME280;6583;42.632;23.298;2023-04-27T04:08:52;70906.78;;;-146.40;47.11
13033;BME280;6583;42.632;23.298;2023-04-27T04:11:19;70910.84;;;-146.40;47.99
13033;BME280;6583;42.632;23.298;2023-04-27T04:13:45;70916.91;;;-146.40;48.50
13033;BME280;6583;42.632;23.298;2023-04-27T04:16:14;70898.69;;;-146.40;48.50
13033;BME280;6583;42.632;23.298;2023-04-27T04:18:40;70898.69;;;-146.40;49.25
13033;BME280;6583;42.632;23.298;2023-04-27T04:21:08;70898.69;;;-146.40;48.35
13033;BME280;6583;42.632;23.298;2023-04-27T04:23:35;70910.84;;;-146.40;46.78
13033;BME280;6583;42.632;23.298;2023-04-27T04:26:02;70902.75;;;-146.40;48.55
13033;BME280;6583;42.632;23.298;2023-04-27T04:28:29;70914.88;;;-146.40;47.27
13033;BME280;6583;42.632;23.298;2023-04-27T04:30:56;70902.75;;;-146.40;47.07
13033;BME280;6583;42.632;23.298;2023-04-27T04:33:24;70908.81;;;-146.40;47.21
13033;BME280;6583;42.632;23.298;2023-04-27T04:35:51;70902.75;;;-146.40;47.16
13033;BME280;6583;42.632;23.298;2023-04-27T04:38:18;70898.69;;;-146.40;47.36
13033;BME280;6583;42.632;23.298;2023-04-27T04:40:45;70898.69;;;-146.40;47.52
13033;BME280;6583;42.632;23.298;2023-04-27T04:43:12;70888.56;;;-146.40;47.91
13033;BME280;6583;42.632;23.298;2023-04-27T04:45:38;70890.59;;;-146.40;47.91
13033;BME280;6583;42.632;23.298;2023-04-27T04:48:06;70878.47;;;-146.40;47.00
13033;BME280;6583;42.632;23.298;2023-04-27T04:50:34;70894.66;;;-146.40;45.64
13033;BME280;6583;42.632;23.298;2023-04-27T04:53:01;70902.75;;;-146.40;45.01
13033;BME280;6583;42.632;23.298;2023-04-27T04:55:27;70896.66;;;-146.40;46.40
13033;BME280;6583;42.632;23.298;2023-04-27T04:57:54;70898.69;;;-146.40;46.86
13033;BME280;6583;42.632;23.298;2023-04-27T05:00:21;70894.66;;;-146.40;46.51
13033;BME280;6583;42.632;23.298;2023-04-27T05:02:47;70892.63;;;-146.40;46.48
13033;BME280;6583;42.632;23.298;2023-04-27T05:05:14;70900.72;;;-146.40;47.16
13033;BME280;6583;42.632;23.298;2023-04-27T05:07:42;70910.84;;;-146.40;45.64
13033;BME280;6583;42.632;23.298;2023-04-27T05:10:09;70918.94;;;-146.40;45.92
13033;BME280;6583;42.632;23.298;2023-04-27T05:12:36;70914.88;;;-146.40;46.29
13033;BME280;6583;42.632;23.298;2023-04-27T05:15:03;70906.78;;;-146.40;46.09
13033;BME280;6583;42.632;23.298;2023-04-27T05:17:30;70906.78;;;-146.40;45.66
13033;BME280;6583;42.632;23.298;2023-04-27T05:19:57;70902.75;;;-146.40;45.90
13033;BME280;6583;42.632;23.298;2023-04-27T05:22:24;70904.75;;;-146.40;44.99
13033;BME280;6583;42.632;23.298;2023-04-27T05:24:52;70890.59;;;-146.40;47.17
13033;BME280;6583;42.632;23.298;2023-04-27T05:27:18;70888.56;;;-146.40;45.73
13033;BME280;6583;42.632;23.298;2023-04-27T05:29:45;70882.50;;;-146.40;46.73
13033;BME280;6583;42.632;23.298;2023-04-27T05:32:11;70890.59;;;-146.40;45.63
13033;BME280;6583;42.632;23.298;2023-04-27T05:34:38;70894.66;;;-146.40;46.15
13033;BME280;6583;42.632;23.298;2023-04-27T05:37:05;70886.56;;;-146.40;46.93
13033;BME280;6583;42.632;23.298;2023-04-27T05:39:32;70894.66;;;-146.40;46.34
13033;BME280;6583;42.632;23.298;2023-04-27T05:42:00;70878.47;;;-146.40;46.29
13033;BME280;6583;42.632;23.298;2023-04-27T05:44:27;70896.66;;;-146.40;45.91
13033;BME280;6583;42.632;23.298;2023-04-27T05:46:53;70890.59;;;-146.40;46.01
13033;BME280;6583;42.632;23.298;2023-04-27T05:49:21;70886.56;;;-146.40;46.32
13033;BME280;6583;42.632;23.298;2023-04-27T05:51:48;70888.56;;;-146.40;46.76
13033;BME280;6583;42.632;23.298;2023-04-27T05:54:15;70882.50;;;-146.40;46.71
13033;BME280;6583;42.632;23.298;2023-04-27T05:56:41;70882.50;;;-146.40;46.89
13033;BME280;6583;42.632;23.298;2023-04-27T05:59:09;70882.50;;;-146.40;46.95
13033;BME280;6583;42.632;23.298;2023-04-27T06:01:36;70876.44;;;-146.40;46.92
13033;BME280;6583;42.632;23.298;2023-04-27T06:04:03;70874.41;;;-146.40;46.31
13033;BME280;6583;42.632;23.298;2023-04-27T06:06:30;70866.31;;;-146.40;47.67
13033;BME280;6583;42.632;23.298;2023-04-27T06:08:57;70862.28;;;-146.40;46.89
13033;BME280;6583;42.632;23.298;2023-04-27T06:11:24;70862.28;;;-146.40;45.76
13033;BME280;6583;42.632;23.298;2023-04-27T06:13:51;70868.34;;;-146.40;46.04
13033;BME280;6583;42.632;23.298;2023-04-27T06:16:19;70866.31;;;-146.40;45.60
13033;BME280;6583;42.632;23.298;2023-04-27T06:18:46;70862.28;;;-146.40;46.02
13033;BME280;6583;42.632;23.298;2023-04-27T06:21:12;70852.16;;;-146.40;47.45
13033;BME280;6583;42.632;23.298;2023-04-27T06:23:39;70842.03;;;-146.40;46.83
13033;BME280;6583;42.632;23.298;2023-04-27T06:26:06;70838.00;;;-146.40;46.31
13033;BME280;6583;42.632;23.298;2023-04-27T06:28:32;70825.84;;;-146.40;46.50
13033;BME280;6583;42.632;23.298;2023-04-27T06:30:59;70819.78;;;-146.40;47.86
13033;BME280;6583;42.632;23.298;2023-04-27T06:33:27;70823.81;;;-146.40;46.06
13033;BME280;6583;42.632;23.298;2023-04-27T06:35:54;70825.84;;;-146.40;45.89
13033;BME280;6583;42.632;23.298;2023-04-27T06:38:21;70809.66;;;-146.40;46.68
13033;BME280;6583;42.632;23.298;2023-04-27T06:40:49;70805.63;;;-146.40;45.72
13033;BME280;6583;42.632;23.298;2023-04-27T06:43:17;70813.72;;;-146.40;44.93
13033;BME280;6583;42.632;23.298;2023-04-27T06:45:44;70795.50;;;-146.40;46.07
13033;BME280;6583;42.632;23.298;2023-04-27T06:48:10;70783.34;;;-146.40;46.11
13033;BME280;6583;42.632;23.298;2023-04-27T06:50:38;70781.34;;;-146.40;47.07
13033;BME280;6583;42.632;23.298;2023-04-27T06:53:05;70785.38;;;-146.40;46.07
13033;BME280;6583;42.632;23.298;2023-04-27T06:55:32;70761.09;;;-146.40;46.14
13033;BME280;6583;42.632;23.298;2023-04-27T06:57:59;70748.97;;;-146.40;45.76
13033;BME280;6583;42.632;23.298;2023-04-27T07:00:26;70734.78;;;-146.40;44.75
13033;BME280;6583;42.632;23.298;2023-04-27T07:02:52;70724.69;;;-146.40;45.32
13033;BME280;6583;42.632;23.298;2023-04-27T07:05:19;70746.94;;;-146.40;43.29
13033;BME280;6583;42.632;23.298;2023-04-27T07:07:47;70769.19;;;-146.40;42.79
13033;BME280;6583;42.632;23.298;2023-04-27T07:10:14;70777.28;;;-146.40;43.30
13033;BME280;6583;42.632;23.298;2023-04-27T07:12:41;70783.34;;;-146.40;44.54
13033;BME280;6583;42.632;23.298;2023-04-27T07:15:08;70791.44;;;-146.40;43.91
13033;BME280;6583;42.632;23.298;2023-04-27T07:17:35;70797.53;;;-146.40;43.98
13033;BME280;6583;42.632;23.298;2023-04-27T07:20:02;70805.63;;;-146.40;44.96
13033;BME280;6583;42.632;23.298;2023-04-27T07:22:30;70813.72;;;-146.40;44.47
13033;BME280;6583;42.632;23.298;2023-04-27T07:24:58;70811.69;;;-146.40;44.43
13033;BME280;6583;42.632;23.298;2023-04-27T07:27:25;70787.41;;;-146.40;44.56
13033;BME280;6583;42.632;23.298;2023-04-27T07:29:51;70777.28;;;-146.40;43.87
13033;BME280;6583;42.632;23.298;2023-04-27T07:32:19;70748.97;;;-146.40;45.72
13033;BME280;6583;42.632;23.298;2023-04-27T07:34:46;70722.66;;;-146.40;44.26
13033;BME280;6583;42.632;23.298;2023-04-27T07:37:14;70748.97;;;-146.40;42.51
13033;BME280;6583;42.632;23.298;2023-04-27T07:39:41;70716.59;;;-146.40;44.62
13033;BME280;6583;42.632;23.298;2023-04-27T07:42:09;70706.47;;;-146.40;42.14
13033;BME280;6583;42.632;23.298;2023-04-27T07:44:39;70690.28;;;-146.40;42.50
13033;BME280;6583;42.632;23.298;2023-04-27T07:47:06;70680.16;;;-146.40;41.78
13033;BME280;6583;42.632;23.298;2023-04-27T07:49:33;70651.84;;;-146.40;42.91
13033;BME280;6583;42.632;23.298;2023-04-27T07:52:00;70643.75;;;-146.40;41.65
13033;BME280;6583;42.632;23.298;2023-04-27T07:54:27;70629.59;;;-146.40;43.46
13033;BME280;6583;42.632;23.298;2023-04-27T07:56:54;70605.31;;;-146.40;43.92
13033;BME280;6583;42.632;23.298;2023-04-27T07:59:22;70581.03;;;-146.40;41.24
13033;BME280;6583;42.632;23.298;2023-04-27T08:01:48;70562.81;;;-146.40;41.78
13033;BME280;6583;42.632;23.298;2023-04-27T08:04:15;70550.69;;;-146.40;40.64
13033;BME280;6583;42.632;23.298;2023-04-27T08:06:42;70560.78;;;-146.40;40.21
13033;BME280;6583;42.632;23.298;2023-04-27T08:09:10;70554.72;;;-146.40;41.50
13033;BME280;6583;42.632;23.298;2023-04-27T08:11:36;70576.97;;;-146.40;40.65
13033;BME280;6583;42.632;23.298;2023-04-27T08:14:03;70574.97;;;-146.40;40.06
13033;BME280;6583;42.632;23.298;2023-04-27T08:16:31;70570.91;;;-146.40;40.31
13033;BME280;6583;42.632;23.298;2023-04-27T08:18:58;70560.78;;;-146.40;40.66
13033;BME280;6583;42.632;23.298;2023-04-27T08:21:25;70607.31;;;-146.40;39.90
13033;BME280;6583;42.632;23.298;2023-04-27T08:23:52;70607.31;;;-146.40;40.19
13033;BME280;6583;42.632;23.298;2023-04-27T08:26:19;70611.38;;;-146.40;41.06
13033;BME280;6583;42.632;23.298;2023-04-27T08:28:46;70617.44;;;-146.40;41.13
13033;BME280;6583;42.632;23.298;2023-04-27T08:31:13;70599.22;;;-146.40;42.04
13033;BME280;6583;42.632;23.298;2023-04-27T08:33:41;70609.34;;;-146.40;39.82
13033;BME280;6583;42.632;23.298;2023-04-27T08:36:08;70605.31;;;-146.40;39.76
13033;BME280;6583;42.632;23.298;2023-04-27T08:38:35;70591.16;;;-146.40;41.45
13033;BME280;6583;42.632;23.298;2023-04-27T08:41:01;70589.13;;;-146.40;40.42
13033;BME280;6583;42.632;23.298;2023-04-27T08:43:32;70613.41;;;-146.40;39.65
13033;BME280;6583;42.632;23.298;2023-04-27T08:45:59;70599.22;;;-146.40;40.15
13033;BME280;6583;42.632;23.298;2023-04-27T08:48:25;70595.19;;;-146.40;40.12
13033;BME280;6583;42.632;23.298;2023-04-27T08:50:55;70587.09;;;-146.40;40.96
13033;BME280;6583;42.632;23.298;2023-04-27T08:53:22;70599.22;;;-146.40;40.48
13033;BME280;6583;42.632;23.298;2023-04-27T08:55:49;70597.22;;;-146.40;40.99
13033;BME280;6583;42.632;23.298;2023-04-27T08:58:16;70581.03;;;-146.40;40.30
13033;BME280;6583;42.632;23.298;2023-04-27T09:00:43;70554.72;;;-146.40;41.42
13033;BME280;6583;42.632;23.298;2023-04-27T09:03:18;70538.53;;;-146.40;40.02
13033;BME280;6583;42.632;23.298;2023-04-27T09:05:47;70522.34;;;-146.40;40.41
13033;BME280;6583;42.632;23.298;2023-04-27T09:08:15;70530.44;;;-146.40;39.23
13033;BME280;6583;42.632;23.298;2023-04-27T09:10:43;70522.34;;;-146.40;38.73
13033;BME280;6583;42.632;23.298;2023-04-27T09:13:10;70500.09;;;-146.40;39.75
13033;BME280;6583;42.632;23.298;2023-04-27T09:15:42;70475.81;;;-146.40;39.81
13033;BME280;6583;42.632;23.298;2023-04-27T09:18:14;70449.53;;;-146.40;39.30
13033;BME280;6583;42.632;23.298;2023-04-27T09:20:42;70423.22;;;-146.40;39.18
13033;BME280;6583;42.632;23.298;2023-04-27T09:23:09;70425.25;;;-146.40;37.70
13033;BME280;6583;42.632;23.298;2023-04-27T09:25:37;70409.06;;;-146.40;37.86
13033;BME280;6583;42.632;23.298;2023-04-27T09:28:03;70411.06;;;-146.40;36.46
13033;BME280;6583;42.632;23.298;2023-04-27T09:30:30;70409.06;;;-146.40;38.20
13033;BME280;6583;42.632;23.298;2023-04-27T09:32:58;70413.09;;;-146.40;36.41
13033;BME280;6583;42.632;23.298;2023-04-27T09:35:27;70433.34;;;-146.40;37.72
13033;BME280;6583;42.632;23.298;2023-04-27T09:37:55;70437.38;;;-146.40;36.63
13033;BME280;6583;42.632;23.298;2023-04-27T09:40:23;70433.34;;;-146.40;37.40
13033;BME280;6583;42.632;23.298;2023-04-27T09:42:53;70402.97;;;-146.40;37.31
13033;BME280;6583;42.632;23.298;2023-04-27T09:45:22;70364.53;;;-146.40;37.04
13033;BME280;6583;42.632;23.298;2023-04-27T09:47:48;70342.28;;;-146.40;37.28
13033;BME280;6583;42.632;23.298;2023-04-27T09:50:15;70354.44;;;-146.40;37.11
13033;BME280;6583;42.632;23.298;2023-04-27T09:52:42;70356.44;;;-146.40;36.76
13033;BME280;6583;42.632;23.298;2023-04-27T09:55:10;70362.53;;;-146.40;38.00
13033;BME280;6583;42.632;23.298;2023-04-27T09:57:47;70368.59;;;-146.40;36.36
13033;BME280;6583;42.632;23.298;2023-04-27T10:00:29;70352.41;;;-146.40;38.74
13033;BME280;6583;42.632;23.298;2023-04-27T10:03:14;70328.13;;;-146.40;36.47
13033;BME280;6583;42.632;23.298;2023-04-27T10:06:02;70311.94;;;-146.40;35.83
13033;BME280;6583;42.632;23.298;2023-04-27T10:08:35;70305.88;;;-146.40;35.61
13033;BME280;6583;42.632;23.298;2023-04-27T10:11:12;70283.63;;;-146.40;35.84
13033;BME280;6583;42.632;23.298;2023-04-27T10:13:50;70259.34;;;-146.40;36.02
13033;BME280;6583;42.632;23.298;2023-04-27T10:16:19;70267.44;;;-146.40;34.48
13033;BME280;6583;42.632;23.298;2023-04-27T10:18:50;70273.50;;;-146.40;34.35
13033;BME280;6583;42.632;23.298;2023-04-27T10:21:18;70255.28;;;-146.40;35.67
13033;BME280;6583;42.632;23.298;2023-04-27T10:23:45;70226.97;;;-146.40;35.74
13033;BME280;6583;42.632;23.298;2023-04-27T10:26:20;70208.78;;;-146.40;35.55
13033;BME280;6583;42.632;23.298;2023-04-27T10:28:55;70196.63;;;-146.40;35.19
13033;BME280;6583;42.632;23.298;2023-04-27T10:31:28;70190.56;;;-146.40;35.44
13033;BME280;6583;42.632;23.298;2023-04-27T10:34:05;70204.72;;;-146.40;33.06
13033;BME280;6583;42.632;23.298;2023-04-27T10:36:36;70222.94;;;-146.40;34.86
13033;BME280;6583;42.632;23.298;2023-04-27T10:39:13;70229.00;;;-146.40;34.27
13033;BME280;6583;42.632;23.298;2023-04-27T10:41:48;70245.19;;;-146.40;34.03
13033;BME280;6583;42.632;23.298;2023-04-27T10:44:16;70245.19;;;-146.40;36.20
13033;BME280;6583;42.632;23.298;2023-04-27T10:46:50;70324.09;;;-146.40;34.31
13033;BME280;6583;42.632;23.298;2023-04-27T10:49:18;70316.00;;;-146.40;35.30
13033;BME280;6583;42.632;23.298;2023-04-27T10:51:44;70320.03;;;-146.40;34.68
13033;BME280;6583;42.632;23.298;2023-04-27T10:54:12;70311.94;;;-146.40;35.02
13033;BME280;6583;42.632;23.298;2023-04-27T10:56:39;70303.84;;;-146.40;34.89
13033;BME280;6583;42.632;23.298;2023-04-27T10:59:06;70277.56;;;-146.40;36.65
13033;BME280;6583;42.632;23.298;2023-04-27T11:01:33;70247.22;;;-146.40;36.20
13033;BME280;6583;42.632;23.298;2023-04-27T11:04:02;70231.03;;;-146.40;36.34
13033;BME280;6583;42.632;23.298;2023-04-27T11:06:30;70222.94;;;-146.40;36.25
13033;BME280;6583;42.632;23.298;2023-04-27T11:08:58;70208.78;;;-146.40;33.66
13033;BME280;6583;42.632;23.298;2023-04-27T11:11:25;70178.44;;;-146.40;36.67
13033;BME280;6583;42.632;23.298;2023-04-27T11:13:52;70154.16;;;-146.40;34.72
13033;BME280;6583;42.632;23.298;2023-04-27T11:16:20;70150.09;;;-146.40;34.39
13033;BME280;6583;42.632;23.298;2023-04-27T11:18:46;70174.38;;;-146.40;32.26
13033;BME280;6583;42.632;23.298;2023-04-27T11:21:16;70188.53;;;-146.40;33.14
13033;BME280;6583;42.632;23.298;2023-04-27T11:23:44;70186.50;;;-146.40;34.65
13033;BME280;6583;42.632;23.298;2023-04-27T11:26:12;70186.50;;;-146.40;33.60
13033;BME280;6583;42.632;23.298;2023-04-27T11:28:40;70188.53;;;-146.40;33.35
13033;BME280;6583;42.632;23.298;2023-04-27T11:31:07;70237.09;;;-146.40;35.29
13033;BME280;6583;42.632;23.298;2023-04-27T11:33:34;70231.03;;;-146.40;34.12
13033;BME280;6583;42.632;23.298;2023-04-27T11:36:01;70247.22;;;-146.40;35.53
13033;BME280;6583;42.632;23.298;2023-04-27T11:38:33;70251.25;;;-146.40;34.11
13033;BME280;6583;42.632;23.298;2023-04-27T11:41:04;70255.28;;;-146.40;34.91
13033;BME280;6583;42.632;23.298;2023-04-27T11:43:32;70269.47;;;-146.40;34.32
13033;BME280;6583;42.632;23.298;2023-04-27T11:46:01;70293.75;;;-146.40;35.48
13033;BME280;6583;42.632;23.298;2023-04-27T11:48:28;70277.56;;;-146.40;34.78
13033;BME280;6583;42.632;23.298;2023-04-27T11:50:56;70287.66;;;-146.40;35.66
13033;BME280;6583;42.632;23.298;2023-04-27T11:53:28;70309.91;;;-146.40;33.66
13033;BME280;6583;42.632;23.298;2023-04-27T11:55:59;70316.00;;;-146.40;34.24
13033;BME280;6583;42.632;23.298;2023-04-27T11:58:27;70322.06;;;-146.40;34.63
13033;BME280;6583;42.632;23.298;2023-04-27T12:00:55;70320.03;;;-146.40;34.31
13033;BME280;6583;42.632;23.298;2023-04-27T12:03:23;70291.72;;;-146.40;35.38
13033;BME280;6583;42.632;23.298;2023-04-27T12:05:51;70291.72;;;-146.40;34.61
13033;BME280;6583;42.632;23.298;2023-04-27T12:08:18;70283.63;;;-146.40;34.24
13033;BME280;6583;42.632;23.298;2023-04-27T12:10:45;70279.56;;;-146.40;35.33
13033;BME280;6583;42.632;23.298;2023-04-27T12:13:13;70289.69;;;-146.40;34.56
13033;BME280;6583;42.632;23.298;2023-04-27T12:15:40;70279.56;;;-146.40;35.59
13033;BME280;6583;42.632;23.298;2023-04-27T12:18:08;70267.44;;;-146.40;35.09
13033;BME280;6583;42.632;23.298;2023-04-27T12:20:35;70291.72;;;-146.40;33.67
13033;BME280;6583;42.632;23.298;2023-04-27T12:23:02;70287.66;;;-146.40;34.92
13033;BME280;6583;42.632;23.298;2023-04-27T12:25:28;70283.63;;;-146.40;35.79
13033;BME280;6583;42.632;23.298;2023-04-27T12:27:55;70285.66;;;-146.40;34.88
13033;BME280;6583;42.632;23.298;2023-04-27T12:30:23;70275.53;;;-146.40;35.13
13033;BME280;6583;42.632;23.298;2023-04-27T12:32:50;70273.50;;;-146.40;36.16
13033;BME280;6583;42.632;23.298;2023-04-27T12:35:17;70263.38;;;-146.40;35.89
13033;BME280;6583;42.632;23.298;2023-04-27T12:37:44;70263.38;;;-146.40;36.45
13033;BME280;6583;42.632;23.298;2023-04-27T12:40:12;70261.38;;;-146.40;35.72
13033;BME280;6583;42.632;23.298;2023-04-27T12:42:39;70259.34;;;-146.40;35.77